createdAt,value
2023-04-18T00:02:23.670Z,7.46
2023-04-18T00:04:50.520Z,7.41
2023-04-18T00:07:17.560Z,7.38
2023-04-18T00:09:44.274Z,7.38
2023-04-18T00:12:11.301Z,7.33
2023-04-18T00:14:38.067Z,7.26
2023-04-18T00:17:08.811Z,7.21
2023-04-18T00:19:37.287Z,7.16
2023-04-18T00:22:03.651Z,7.11
2023-04-18T00:24:30.111Z,7.08
2023-04-18T00:26:57.149Z,7.04
2023-04-18T00:29:23.627Z,7.01
2023-04-18T00:31:50.093Z,6.96
2023-04-18T00:34:16.463Z,6.91
2023-04-18T00:36:42.883Z,6.86
2023-04-18T00:39:09.305Z,6.84
2023-04-18T00:41:35.700Z,6.81
2023-04-18T00:44:02.128Z,6.79
2023-04-18T00:46:28.520Z,6.77
2023-04-18T00:48:55.083Z,6.72
2023-04-18T00:51:21.665Z,6.64
2023-04-18T00:53:48.360Z,6.62
2023-04-18T00:56:14.897Z,6.57
2023-04-18T00:58:41.600Z,6.55
2023-04-18T01:01:09.344Z,6.47
2023-04-18T01:03:37.330Z,6.42
2023-04-18T01:06:04.210Z,6.38
2023-04-18T01:08:31.436Z,6.36
2023-04-18T01:10:57.922Z,6.29
2023-04-18T01:13:24.246Z,6.26
2023-04-18T01:15:53.938Z,6.23
2023-04-18T01:18:20.773Z,6.19
2023-04-18T01:20:49.360Z,6.16
2023-04-18T01:23:17.579Z,6.15
2023-04-18T01:25:45.346Z,6.09
2023-04-18T01:28:14.078Z,6.05
2023-04-18T01:30:40.759Z,6.04
2023-04-18T01:33:07.226Z,6.03
2023-04-18T01:35:33.674Z,6.00
2023-04-18T01:38:00.590Z,5.94
2023-04-18T01:40:27.359Z,5.93
2023-04-18T01:42:53.742Z,5.89
2023-04-18T01:45:20.416Z,5.88
2023-04-18T01:47:47.125Z,5.86
2023-04-18T01:50:13.963Z,5.84
2023-04-18T01:52:40.500Z,5.82
2023-04-18T01:55:07.243Z,5.77
2023-04-18T01:57:36.586Z,5.76
2023-04-18T02:00:06.575Z,5.74
2023-04-18T02:02:33.270Z,5.71
2023-04-18T02:04:59.989Z,5.68
2023-04-18T02:07:26.418Z,5.63
2023-04-18T02:09:52.762Z,5.59
2023-04-18T02:12:19.125Z,5.57
2023-04-18T02:14:45.548Z,5.54
2023-04-18T02:17:11.872Z,5.54
2023-04-18T02:19:38.267Z,5.50
2023-04-18T02:22:04.599Z,5.47
2023-04-18T02:24:31.116Z,5.43
2023-04-18T02:26:57.443Z,5.41
2023-04-18T02:29:23.827Z,5.39
2023-04-18T02:31:50.306Z,5.37
2023-04-18T02:34:16.717Z,5.36
2023-04-18T02:36:43.102Z,5.33
2023-04-18T02:39:09.431Z,5.29
2023-04-18T02:41:37.639Z,5.27
2023-04-18T02:44:04.044Z,5.24
2023-04-18T02:46:30.442Z,5.21
2023-04-18T02:48:56.808Z,5.15
2023-04-18T02:51:23.241Z,5.11
2023-04-18T02:53:51.810Z,5.05
2023-04-18T02:56:18.854Z,5.05
2023-04-18T02:58:45.269Z,5.06
2023-04-18T03:01:11.782Z,5.03
2023-04-18T03:03:38.124Z,4.97
2023-04-18T03:06:04.731Z,4.92
2023-04-18T03:08:31.131Z,4.89
2023-04-18T03:10:57.505Z,4.87
2023-04-18T03:13:24.872Z,4.84
2023-04-18T03:15:51.492Z,4.84
2023-04-18T03:18:17.972Z,4.83
2023-04-18T03:20:44.331Z,4.82
2023-04-18T03:23:10.793Z,4.78
2023-04-18T03:25:37.447Z,4.78
2023-04-18T03:28:04.511Z,4.74
2023-04-18T03:30:31.314Z,4.72
2023-04-18T03:32:58.647Z,4.70
2023-04-18T03:35:25.326Z,4.68
2023-04-18T03:37:51.727Z,4.64
2023-04-18T03:40:19.001Z,4.64
2023-04-18T03:42:45.413Z,4.60
2023-04-18T03:45:12.069Z,4.58
2023-04-18T03:47:38.538Z,4.55
2023-04-18T03:50:05.538Z,4.53
2023-04-18T03:52:31.897Z,4.49
2023-04-18T03:54:58.262Z,4.46
2023-04-18T03:57:24.671Z,4.43
2023-04-18T03:59:51.199Z,4.42
2023-04-18T04:02:17.583Z,4.42
2023-04-18T04:04:44.020Z,4.43
2023-04-18T04:07:11.980Z,4.47
2023-04-18T04:09:38.302Z,4.50
2023-04-18T04:12:04.992Z,4.55
2023-04-18T04:14:31.405Z,4.60
2023-04-18T04:16:57.829Z,4.65
2023-04-18T04:19:24.269Z,4.69
2023-04-18T04:21:50.659Z,4.74
2023-04-18T04:24:17.158Z,4.76
2023-04-18T04:26:43.622Z,4.81
2023-04-18T04:29:13.796Z,4.85
2023-04-18T04:31:40.139Z,4.88
2023-04-18T04:34:06.925Z,4.90
2023-04-18T04:36:33.433Z,4.91
2023-04-18T04:38:59.839Z,4.93
2023-04-18T04:41:27.657Z,4.95
2023-04-18T04:43:54.342Z,4.98
2023-04-18T04:46:21.198Z,5.01
2023-04-18T04:48:47.635Z,5.07
2023-04-18T04:51:14.055Z,5.12
2023-04-18T04:53:40.438Z,5.12
2023-04-18T04:56:07.071Z,5.15
2023-04-18T04:58:33.450Z,5.19
2023-04-18T05:00:59.864Z,5.22
2023-04-18T05:03:26.471Z,5.22
2023-04-18T05:05:53.438Z,5.22
2023-04-18T05:08:19.761Z,5.27
2023-04-18T05:10:47.542Z,5.27
2023-04-18T05:13:13.939Z,5.29
2023-04-18T05:15:40.585Z,5.32
2023-04-18T05:18:07.202Z,5.34
2023-04-18T05:20:33.610Z,5.37
2023-04-18T05:23:00.175Z,5.40
2023-04-18T05:25:26.874Z,5.42
2023-04-18T05:27:53.329Z,5.45
2023-04-18T05:30:19.805Z,5.49
2023-04-18T05:32:46.243Z,5.52
2023-04-18T05:35:12.675Z,5.57
2023-04-18T05:37:39.026Z,5.59
2023-04-18T05:40:06.478Z,5.63
2023-04-18T05:42:32.871Z,5.65
2023-04-18T05:44:59.366Z,5.71
2023-04-18T05:47:28.302Z,5.74
2023-04-18T05:49:55.164Z,5.78
2023-04-18T05:52:21.603Z,5.81
2023-04-18T05:54:48.026Z,5.83
2023-04-18T05:57:14.459Z,5.89
2023-04-18T05:59:40.816Z,5.93
2023-04-18T06:02:13.135Z,5.96
2023-04-18T06:04:41.806Z,6.02
2023-04-18T06:07:09.193Z,6.04
2023-04-18T06:09:35.751Z,6.09
2023-04-18T06:12:02.200Z,6.15
2023-04-18T06:14:28.696Z,6.20
2023-04-18T06:16:55.296Z,6.28
2023-04-18T06:19:21.957Z,6.33
2023-04-18T06:21:48.709Z,6.41
2023-04-18T06:24:15.475Z,6.47
2023-04-18T06:26:42.330Z,6.56
2023-04-18T06:29:08.722Z,6.69
2023-04-18T06:31:35.430Z,6.80
2023-04-18T06:34:01.857Z,6.92
2023-04-18T06:36:28.241Z,7.07
2023-04-18T06:38:54.620Z,7.20
2023-04-18T06:41:21.098Z,7.35
2023-04-18T06:44:02.056Z,7.48
2023-04-18T06:46:30.023Z,7.64
2023-04-18T06:48:56.584Z,7.63
2023-04-18T06:51:22.965Z,7.66
2023-04-18T06:53:52.524Z,7.67
2023-04-18T06:56:22.073Z,7.78
2023-04-18T06:58:49.097Z,7.80
2023-04-18T07:01:15.894Z,7.86
2023-04-18T07:03:42.370Z,7.91
2023-04-18T07:06:10.448Z,7.94
2023-04-18T07:08:36.989Z,7.93
2023-04-18T07:11:03.310Z,7.93
2023-04-18T07:13:29.858Z,7.93
2023-04-18T07:15:56.767Z,8.01
2023-04-18T07:18:34.104Z,8.02
2023-04-18T07:21:01.779Z,8.01
2023-04-18T07:23:28.180Z,8.01
2023-04-18T07:25:54.630Z,8.00
2023-04-18T07:28:21.106Z,8.04
2023-04-18T07:30:48.305Z,8.13
2023-04-18T07:33:14.781Z,8.32
2023-04-18T07:35:45.790Z,8.44
2023-04-18T07:38:12.958Z,8.51
2023-04-18T07:40:39.358Z,8.59
2023-04-18T07:43:05.839Z,8.61
2023-04-18T07:45:33.440Z,8.66
2023-04-18T07:47:59.802Z,8.86
2023-04-18T07:50:26.880Z,9.11
2023-04-18T07:52:53.264Z,9.32
2023-04-18T07:55:19.660Z,9.37
2023-04-18T07:57:50.299Z,9.39
2023-04-18T08:00:17.894Z,9.39
2023-04-18T08:02:44.409Z,9.50
2023-04-18T08:05:11.091Z,9.83
2023-04-18T08:07:37.945Z,10.07
2023-04-18T08:10:04.802Z,10.05
2023-04-18T08:12:31.213Z,10.24
2023-04-18T08:14:57.566Z,10.41
2023-04-18T08:17:23.981Z,10.54
2023-04-18T08:19:50.632Z,10.54
2023-04-18T08:22:16.999Z,10.95
2023-04-18T08:25:01.017Z,11.01
2023-04-18T08:27:30.593Z,11.18
2023-04-18T08:29:56.999Z,11.19
2023-04-18T08:32:23.344Z,11.21
2023-04-18T08:34:49.790Z,11.60
2023-04-18T08:37:16.245Z,11.72
2023-04-18T08:39:42.680Z,11.52
2023-04-18T08:42:10.764Z,11.31
2023-04-18T08:44:37.429Z,11.33
2023-04-18T08:47:03.828Z,11.26
2023-04-18T08:49:31.578Z,11.06
2023-04-18T08:52:01.074Z,11.02
2023-04-18T08:54:30.474Z,11.16
2023-04-18T08:57:07.512Z,11.18
2023-04-18T08:59:35.409Z,11.06
2023-04-18T09:02:04.226Z,10.96
2023-04-18T09:04:35.203Z,10.94
2023-04-18T09:07:06.574Z,11.07
2023-04-18T09:09:43.352Z,11.39
2023-04-18T09:12:11.318Z,11.56
2023-04-18T09:14:40.104Z,11.54
2023-04-18T09:17:06.876Z,11.58
2023-04-18T09:19:33.848Z,11.72
2023-04-18T09:22:04.336Z,11.70
2023-04-18T09:24:32.405Z,11.79
2023-04-18T09:26:59.740Z,12.01
2023-04-18T09:29:51.843Z,12.31
2023-04-18T09:32:29.455Z,12.54
2023-04-18T09:35:03.979Z,12.42
2023-04-18T09:37:31.034Z,12.27
2023-04-18T09:39:57.474Z,12.43
2023-04-18T09:42:24.633Z,12.55
2023-04-18T09:44:57.986Z,12.55
2023-04-18T09:47:24.384Z,12.69
2023-04-18T09:49:51.217Z,12.75
2023-04-18T09:52:19.691Z,12.70
2023-04-18T09:54:48.528Z,12.68
2023-04-18T09:57:16.849Z,12.89
2023-04-18T09:59:59.154Z,12.91
2023-04-18T10:02:28.816Z,12.87
2023-04-18T10:04:56.253Z,12.78
2023-04-18T10:07:24.784Z,12.86
2023-04-18T10:09:52.206Z,12.92
2023-04-18T10:12:19.549Z,12.74
2023-04-18T10:14:46.422Z,12.77
2023-04-18T10:17:14.869Z,12.53
2023-04-18T10:19:42.003Z,12.47
2023-04-18T10:22:08.436Z,12.36
2023-04-18T10:24:53.909Z,12.47
2023-04-18T10:27:48.237Z,12.95
2023-04-18T10:30:18.157Z,13.47
2023-04-18T10:32:47.656Z,13.54
2023-04-18T10:35:15.154Z,13.20
2023-04-18T10:37:59.632Z,13.19
2023-04-18T10:40:33.967Z,13.15
2023-04-18T10:43:01.014Z,13.01
2023-04-18T10:45:30.820Z,13.50
2023-04-18T10:48:21.937Z,13.77
2023-04-18T10:51:13.828Z,13.90
2023-04-18T10:53:49.886Z,14.10
2023-04-18T10:56:16.686Z,14.69
2023-04-18T10:58:48.504Z,14.70
2023-04-18T11:01:15.921Z,14.75
2023-04-18T11:03:42.530Z,15.24
2023-04-18T11:06:09.095Z,15.55
2023-04-18T11:08:35.838Z,15.65
2023-04-18T11:11:04.084Z,15.69
2023-04-18T11:13:31.795Z,15.84
2023-04-18T11:15:58.180Z,15.67
2023-04-18T11:18:24.779Z,15.47
2023-04-18T11:20:51.767Z,15.09
2023-04-18T11:23:24.980Z,14.85
2023-04-18T11:25:54.350Z,14.44
2023-04-18T11:28:21.920Z,14.32
2023-04-18T11:30:48.420Z,14.15
2023-04-18T11:33:15.096Z,14.23
2023-04-18T11:35:43.488Z,14.17
2023-04-18T11:38:12.529Z,14.19
2023-04-18T11:40:39.087Z,14.61
2023-04-18T11:43:07.113Z,14.76
2023-04-18T11:45:33.609Z,14.67
2023-04-18T11:48:00.809Z,14.54
2023-04-18T11:50:27.190Z,14.42
2023-04-18T11:52:54.873Z,14.35
2023-04-18T11:55:24.678Z,14.29
2023-04-18T11:57:57.994Z,14.14
2023-04-18T12:00:38.773Z,14.20
2023-04-18T12:03:07.859Z,14.40
2023-04-18T12:05:37.010Z,14.40
2023-04-18T12:08:18.575Z,14.48
2023-04-18T12:10:50.644Z,14.70
2023-04-18T12:13:17.541Z,15.02
2023-04-18T12:15:46.125Z,15.20
2023-04-18T12:18:14.460Z,15.23
2023-04-18T12:20:54.192Z,15.00
2023-04-18T12:23:38.967Z,14.67
2023-04-18T12:26:07.478Z,14.43
2023-04-18T12:28:35.358Z,14.52
2023-04-18T12:31:02.266Z,14.46
2023-04-18T12:33:28.723Z,14.36
2023-04-18T12:35:55.975Z,14.49
2023-04-18T12:38:23.392Z,14.54
2023-04-18T12:40:51.280Z,14.60
2023-04-18T12:43:18.788Z,14.58
2023-04-18T12:45:46.174Z,15.32
2023-04-18T12:48:12.955Z,15.51
2023-04-18T12:50:39.361Z,15.24
2023-04-18T12:53:06.054Z,15.02
2023-04-18T12:55:32.697Z,14.91
2023-04-18T12:57:59.738Z,14.66
2023-04-18T13:00:31.360Z,14.61
2023-04-18T13:02:58.525Z,14.65
2023-04-18T13:05:29.778Z,14.67
2023-04-18T13:08:15.179Z,14.50
2023-04-18T13:10:42.427Z,14.51
2023-04-18T13:13:08.866Z,14.41
2023-04-18T13:15:35.247Z,14.38
2023-04-18T13:18:05.077Z,14.36
2023-04-18T13:20:32.546Z,14.35
2023-04-18T13:22:58.896Z,14.35
2023-04-18T13:25:26.566Z,14.45
2023-04-18T13:27:53.357Z,14.51
2023-04-18T13:30:19.989Z,14.63
2023-04-18T13:32:47.028Z,14.70
2023-04-18T13:35:13.720Z,14.66
2023-04-18T13:37:40.283Z,14.73
2023-04-18T13:40:07.254Z,14.78
2023-04-18T13:42:34.265Z,14.79
2023-04-18T13:45:00.669Z,14.70
2023-04-18T13:47:27.161Z,14.90
2023-04-18T13:49:53.698Z,14.91
2023-04-18T13:52:20.129Z,14.89
2023-04-18T13:54:46.967Z,14.88
2023-04-18T13:57:14.568Z,14.80
2023-04-18T13:59:41.147Z,15.27
2023-04-18T14:02:10.753Z,15.82
2023-04-18T14:04:37.462Z,16.06
2023-04-18T14:07:06.446Z,15.98
2023-04-18T14:09:32.938Z,15.46
2023-04-18T14:11:59.497Z,15.07
2023-04-18T14:14:25.889Z,15.08
2023-04-18T14:16:53.512Z,15.21
2023-04-18T14:19:19.893Z,15.30
2023-04-18T14:21:47.455Z,15.44
2023-04-18T14:24:14.114Z,15.48
2023-04-18T14:26:41.828Z,15.44
2023-04-18T14:29:08.301Z,15.25
2023-04-18T14:31:35.243Z,15.10
2023-04-18T14:34:01.663Z,14.91
2023-04-18T14:36:28.222Z,14.79
2023-04-18T14:38:55.045Z,14.79
2023-04-18T14:41:21.506Z,14.94
2023-04-18T14:43:48.173Z,15.17
2023-04-18T14:46:18.333Z,15.30
2023-04-18T14:48:46.322Z,15.71
2023-04-18T14:51:13.030Z,16.18
2023-04-18T14:53:39.406Z,16.12
2023-04-18T14:56:06.028Z,16.59
2023-04-18T14:58:32.514Z,16.60
2023-04-18T15:00:59.038Z,16.23
2023-04-18T15:03:25.572Z,16.39
2023-04-18T15:05:53.184Z,16.81
2023-04-18T15:08:19.642Z,16.91
2023-04-18T15:10:47.533Z,17.20
2023-04-18T15:13:13.971Z,17.10
2023-04-18T15:15:40.539Z,17.35
2023-04-18T15:18:08.103Z,17.61
2023-04-18T15:20:36.871Z,17.35
2023-04-18T15:23:03.338Z,17.38
2023-04-18T15:25:30.447Z,17.27
2023-04-18T15:27:58.206Z,16.92
2023-04-18T15:30:24.993Z,16.41
2023-04-18T15:32:52.103Z,16.62
2023-04-18T15:35:18.583Z,17.12
2023-04-18T15:37:44.961Z,17.18
2023-04-18T15:40:16.032Z,17.18
2023-04-18T15:42:43.553Z,17.26
2023-04-18T15:45:10.835Z,17.48
2023-04-18T15:47:38.655Z,17.30
2023-04-18T15:50:05.733Z,16.61
2023-04-18T15:52:32.176Z,16.57
2023-04-18T15:54:58.654Z,16.70
2023-04-18T15:57:25.030Z,16.49
2023-04-18T15:59:51.622Z,16.39
2023-04-18T16:02:18.156Z,16.31
2023-04-18T16:04:44.654Z,16.04
2023-04-18T16:07:12.126Z,16.25
2023-04-18T16:09:38.544Z,16.36
2023-04-18T16:12:05.751Z,16.51
2023-04-18T16:14:33.359Z,16.73
2023-04-18T16:17:00.117Z,17.05
2023-04-18T16:19:26.565Z,16.92
2023-04-18T16:21:52.957Z,16.70
2023-04-18T16:24:19.494Z,16.58
2023-04-18T16:26:45.830Z,16.26
2023-04-18T16:29:12.199Z,16.02
2023-04-18T16:31:38.680Z,15.85
2023-04-18T16:34:05.259Z,15.77
2023-04-18T16:36:34.261Z,16.05
2023-04-18T16:39:00.834Z,16.42
2023-04-18T16:41:27.258Z,16.44
2023-04-18T16:43:53.922Z,16.28
2023-04-18T16:46:20.358Z,16.02
2023-04-18T16:48:46.856Z,15.89
2023-04-18T16:51:13.398Z,15.79
2023-04-18T16:53:39.816Z,15.86
2023-04-18T16:56:07.868Z,15.83
2023-04-18T16:58:34.390Z,15.69
2023-04-18T17:01:04.060Z,15.69
2023-04-18T17:03:30.511Z,15.66
2023-04-18T17:05:57.054Z,15.63
2023-04-18T17:08:25.748Z,15.60
2023-04-18T17:10:52.766Z,15.57
2023-04-18T17:13:19.205Z,15.39
2023-04-18T17:15:45.629Z,15.28
2023-04-18T17:18:12.165Z,15.19
2023-04-18T17:20:38.623Z,15.20
2023-04-18T17:23:05.034Z,15.11
2023-04-18T17:25:31.786Z,15.12
2023-04-18T17:27:58.644Z,15.71
2023-04-18T17:30:25.064Z,16.07
2023-04-18T17:32:51.583Z,16.32
2023-04-18T17:35:18.146Z,16.20
2023-04-18T17:37:47.485Z,15.90
2023-04-18T17:40:14.133Z,15.74
2023-04-18T17:42:41.008Z,15.50
2023-04-18T17:45:09.038Z,15.30
2023-04-18T17:47:36.492Z,15.23
2023-04-18T17:50:04.051Z,14.98
2023-04-18T17:52:30.545Z,14.98
2023-04-18T17:54:57.014Z,15.00
2023-04-18T17:57:24.239Z,14.95
2023-04-18T17:59:50.655Z,14.95
2023-04-18T18:02:17.193Z,14.98
2023-04-18T18:04:43.678Z,14.86
2023-04-18T18:07:10.266Z,14.69
2023-04-18T18:09:36.933Z,14.66
2023-04-18T18:12:03.473Z,14.56
2023-04-18T18:14:29.905Z,14.43
2023-04-18T18:16:56.530Z,14.33
2023-04-18T18:19:23.063Z,14.27
2023-04-18T18:21:49.571Z,14.16
2023-04-18T18:24:16.306Z,14.09
2023-04-18T18:26:42.769Z,14.00
2023-04-18T18:29:09.400Z,13.89
2023-04-18T18:31:36.555Z,13.83
2023-04-18T18:34:03.051Z,13.76
2023-04-18T18:36:29.825Z,13.70
2023-04-18T18:38:56.215Z,13.69
2023-04-18T18:41:22.940Z,13.63
2023-04-18T18:43:50.143Z,13.56
2023-04-18T18:46:16.885Z,13.43
2023-04-18T18:48:43.682Z,13.31
2023-04-18T18:51:10.768Z,13.22
2023-04-18T18:53:39.657Z,13.14
2023-04-18T18:56:08.520Z,13.10
2023-04-18T18:58:35.619Z,12.97
2023-04-18T19:01:03.207Z,12.92
2023-04-18T19:03:29.893Z,12.88
2023-04-18T19:05:56.618Z,12.81
2023-04-18T19:08:23.199Z,12.72
2023-04-18T19:10:50.522Z,12.67
2023-04-18T19:13:22.313Z,12.60
2023-04-18T19:15:48.747Z,12.54
2023-04-18T19:18:15.284Z,12.41
2023-04-18T19:20:41.758Z,12.33
2023-04-18T19:23:08.143Z,12.24
2023-04-18T19:25:34.489Z,12.19
2023-04-18T19:28:00.864Z,12.14
2023-04-18T19:30:27.239Z,12.09
2023-04-18T19:32:53.600Z,12.04
2023-04-18T19:35:20.083Z,12.00
2023-04-18T19:37:46.716Z,11.93
2023-04-18T19:40:14.075Z,11.88
2023-04-18T19:42:40.980Z,11.83
2023-04-18T19:45:07.841Z,11.75
2023-04-18T19:47:34.361Z,11.68
2023-04-18T19:50:01.370Z,11.62
2023-04-18T19:52:27.726Z,11.58
2023-04-18T19:54:54.884Z,11.53
2023-04-18T19:57:21.731Z,11.47
2023-04-18T19:59:48.104Z,11.44
2023-04-18T20:02:14.478Z,11.40
2023-04-18T20:04:41.793Z,11.32
2023-04-18T20:07:08.298Z,11.27
2023-04-18T20:09:34.659Z,11.22
2023-04-18T20:12:02.538Z,11.16
2023-04-18T20:14:29.525Z,11.11
2023-04-18T20:16:56.523Z,11.03
2023-04-18T20:19:26.733Z,11.01
2023-04-18T20:21:53.115Z,10.97
2023-04-18T20:24:21.111Z,10.93
2023-04-18T20:26:47.774Z,10.85
2023-04-18T20:29:14.457Z,10.78
2023-04-18T20:31:42.423Z,10.74
2023-04-18T20:34:09.819Z,10.67
2023-04-18T20:36:41.286Z,10.66
2023-04-18T20:39:12.616Z,10.60
2023-04-18T20:41:49.228Z,10.51
2023-04-18T20:44:16.785Z,10.48
2023-04-18T20:46:43.161Z,10.39
2023-04-18T20:49:09.808Z,10.35
2023-04-18T20:51:37.129Z,10.28
2023-04-18T20:54:04.611Z,10.22
2023-04-18T20:56:31.961Z,10.16
2023-04-18T20:58:58.354Z,10.10
2023-04-18T21:01:24.884Z,10.07
2023-04-18T21:03:51.545Z,10.03
2023-04-18T21:06:19.051Z,9.93
2023-04-18T21:08:45.739Z,9.93
2023-04-18T21:11:12.260Z,9.88
2023-04-18T21:13:38.681Z,9.87
2023-04-18T21:16:07.643Z,9.85
2023-04-18T21:18:34.270Z,9.80
2023-04-18T21:21:00.841Z,9.76
2023-04-18T21:23:27.306Z,9.72
2023-04-18T21:25:53.761Z,9.70
2023-04-18T21:28:20.425Z,9.64
2023-04-18T21:30:46.927Z,9.58
2023-04-18T21:33:13.814Z,9.56
2023-04-18T21:35:40.268Z,9.53
2023-04-18T21:38:06.629Z,9.50
2023-04-18T21:40:33.345Z,9.44
2023-04-18T21:42:59.745Z,9.40
2023-04-18T21:45:26.303Z,9.37
2023-04-18T21:47:52.842Z,9.33
2023-04-18T21:50:19.470Z,9.31
2023-04-18T21:52:45.860Z,9.29
2023-04-18T21:55:12.296Z,9.23
2023-04-18T21:57:38.705Z,9.19
2023-04-18T22:00:07.807Z,9.16
2023-04-18T22:02:35.807Z,9.17
2023-04-18T22:05:02.860Z,9.14
2023-04-18T22:07:29.494Z,9.11
2023-04-18T22:09:58.426Z,9.08
2023-04-18T22:12:26.323Z,9.07
2023-04-18T22:14:52.887Z,9.03
2023-04-18T22:17:19.359Z,9.02
2023-04-18T22:19:47.172Z,8.98
2023-04-18T22:22:13.479Z,8.97
2023-04-18T22:24:39.833Z,8.92
2023-04-18T22:27:06.386Z,8.87
2023-04-18T22:29:32.872Z,8.85
2023-04-18T22:31:59.217Z,8.82
2023-04-18T22:34:25.581Z,8.81
2023-04-18T22:36:52.011Z,8.80
2023-04-18T22:39:18.330Z,8.78
2023-04-18T22:41:44.840Z,8.74
2023-04-18T22:44:11.224Z,8.71
2023-04-18T22:46:38.473Z,8.66
2023-04-18T22:49:05.542Z,8.62
2023-04-18T22:51:32.556Z,8.62
2023-04-18T22:53:58.989Z,8.59
2023-04-18T22:56:25.462Z,8.58
2023-04-18T22:58:51.813Z,8.56
2023-04-18T23:01:18.493Z,8.52
2023-04-18T23:03:45.492Z,8.48
2023-04-18T23:06:11.977Z,8.47
2023-04-18T23:08:38.320Z,8.46
2023-04-18T23:11:04.724Z,8.44
2023-04-18T23:13:31.080Z,8.42
2023-04-18T23:15:57.555Z,8.40
2023-04-18T23:18:24.024Z,8.38
2023-04-18T23:20:50.368Z,8.34
2023-04-18T23:23:16.793Z,8.31
2023-04-18T23:25:44.078Z,8.28
2023-04-18T23:28:10.594Z,8.25
2023-04-18T23:30:37.259Z,8.23
2023-04-18T23:33:03.833Z,8.22
2023-04-18T23:35:30.537Z,8.22
2023-04-18T23:37:57.286Z,8.22
2023-04-18T23:40:23.701Z,8.23
2023-04-18T23:42:50.153Z,8.24
2023-04-18T23:45:16.643Z,8.23
2023-04-18T23:47:43.057Z,8.19
2023-04-18T23:50:09.937Z,8.19
2023-04-18T23:52:38.154Z,8.17
2023-04-18T23:55:04.843Z,8.16
2023-04-18T23:57:31.220Z,8.16
2023-04-18T23:59:57.586Z,8.13
